CheckWX is a tool to help pilots better visualize weather data.  It is not intended as a substitute for an official pre-flight weather briefing.

17:29:24 UTC

KPWT TAF
Bremerton National Airport
Bremerton, Washington, USA
KPWT 241344Z 2414/2512 00000KT 4SM BR BKN040 BKN060 FM241700 18005KT P6SM SCT020 BKN035 BKN060 FM242100 20004KT P6SM SCT040 BKN070 FM250300 00000KT P6SM SCT250

Mar-24@
14:00 UTC

Mar-24 @ 14:00 UTC

Mar-24@
17:00 UTC

Mar-24 @ 17:00 UTC

KPWT 241344Z 2414/2512 00000KT 4SM BR BKN040 BKN060

Expired

Conditions
Mist
Cloud Levels
  • Broken at 4,000' AGL
  • Broken at 6,000' AGL

Mar-24@
17:00 UTC

Mar-24 @ 17:00 UTC

Mar-24@
21:00 UTC

Mar-24 @ 21:00 UTC

FM241700 18005KT P6SM SCT020 BKN035 BKN060

From

From Standard forecast or significant change

Wind
  • 180° at 5 KTS
Cloud Levels
  • Scattered at 2,000' AGL
  • Broken at 3,500' AGL
  • Broken at 6,000' AGL

Mar-24@
21:00 UTC

Mar-24 @ 21:00 UTC

Mar-25@
03:00 UTC

Mar-25 @ 03:00 UTC

FM242100 20004KT P6SM SCT040 BKN070

From

From Standard forecast or significant change

Wind
  • 200° at 4 KTS
Cloud Levels
  • Scattered at 4,000' AGL
  • Broken at 7,000' AGL

Mar-25@
03:00 UTC

Mar-25 @ 03:00 UTC

Mar-25@
12:00 UTC

Mar-25 @ 12:00 UTC

FM250300 00000KT P6SM SCT250

From

From Standard forecast or significant change

Cloud Levels
  • Scattered at 25,000' AGL